createdAt,value
2023-03-31T00:02:22.037Z,1.20
2023-03-31T00:05:29.428Z,0.80
2023-03-31T00:08:47.650Z,1.00
2023-03-31T00:11:53.231Z,1.40
2023-03-31T00:14:58.301Z,1.20
2023-03-31T00:18:06.498Z,1.20
2023-03-31T00:21:14.791Z,1.57
2023-03-31T00:24:23.510Z,1.27
2023-03-31T00:27:28.518Z,1.20
2023-03-31T00:30:31.262Z,1.20
2023-03-31T00:33:36.246Z,1.20
2023-03-31T00:36:50.713Z,1.07
2023-03-31T00:39:54.025Z,1.03
2023-03-31T00:42:59.141Z,1.13
2023-03-31T00:46:27.512Z,1.30
2023-03-31T00:49:33.995Z,0.97
2023-03-31T00:52:40.468Z,1.20
2023-03-31T00:55:59.978Z,1.20
2023-03-31T00:59:08.754Z,1.20
2023-03-31T01:02:14.412Z,1.40
2023-03-31T01:05:20.480Z,1.27
2023-03-31T01:08:27.473Z,1.27
2023-03-31T01:11:32.515Z,1.30
2023-03-31T01:14:35.639Z,1.30
2023-03-31T01:17:45.025Z,1.20
2023-03-31T01:21:31.579Z,1.30
2023-03-31T01:25:04.300Z,1.50
2023-03-31T01:28:14.115Z,1.17
2023-03-31T01:32:16.820Z,1.37
2023-03-31T01:35:51.699Z,1.50
2023-03-31T01:39:26.663Z,1.70
2023-03-31T01:42:37.393Z,1.70
2023-03-31T01:45:57.124Z,1.63
2023-03-31T01:49:07.473Z,1.63
2023-03-31T01:52:20.648Z,1.93
2023-03-31T01:55:30.296Z,1.97
2023-03-31T01:58:39.016Z,1.50
2023-03-31T02:01:52.374Z,1.60
2023-03-31T02:05:02.740Z,1.70
2023-03-31T02:08:24.025Z,1.23
2023-03-31T02:11:31.918Z,1.50
2023-03-31T02:14:47.885Z,1.90
2023-03-31T02:17:54.743Z,1.50
2023-03-31T02:21:06.131Z,1.50
2023-03-31T02:27:34.371Z,2.27
2023-03-31T02:30:47.077Z,1.57
2023-03-31T02:34:03.210Z,1.53
2023-03-31T02:37:08.776Z,1.57
2023-03-31T02:40:17.212Z,1.60
2023-03-31T02:43:20.169Z,2.20
2023-03-31T02:46:32.740Z,1.67
2023-03-31T02:49:51.225Z,1.60
2023-03-31T02:53:04.795Z,1.50
2023-03-31T02:56:25.716Z,1.30
2023-03-31T02:59:45.750Z,1.40
2023-03-31T03:03:08.055Z,1.70
2023-03-31T03:06:23.638Z,1.60
2023-03-31T03:09:49.037Z,1.30
2023-03-31T03:12:58.679Z,1.47
2023-03-31T03:16:07.000Z,1.50
2023-03-31T03:19:24.544Z,1.47
2023-03-31T03:22:27.223Z,1.60
2023-03-31T03:25:30.680Z,1.53
2023-03-31T03:28:33.316Z,1.73
2023-03-31T03:31:39.205Z,1.53
2023-03-31T03:34:43.218Z,1.20
2023-03-31T03:37:52.651Z,1.90
2023-03-31T03:40:59.770Z,1.50
2023-03-31T03:44:05.721Z,1.60
2023-03-31T03:47:11.416Z,2.40
2023-03-31T03:50:16.305Z,1.70
2023-03-31T03:53:19.228Z,2.30
2023-03-31T03:56:24.850Z,2.33
2023-03-31T03:59:27.500Z,1.93
2023-03-31T04:02:37.577Z,1.90
2023-03-31T04:05:43.651Z,2.33
2023-03-31T04:08:53.567Z,2.40
2023-03-31T04:11:56.205Z,1.87
2023-03-31T04:14:58.798Z,1.60
2023-03-31T04:18:02.048Z,1.33
2023-03-31T04:21:06.256Z,1.80
2023-03-31T04:24:11.669Z,1.80
2023-03-31T04:27:21.149Z,1.57
2023-03-31T04:30:24.747Z,1.43
2023-03-31T04:33:40.854Z,1.60
2023-03-31T04:36:47.958Z,1.70
2023-03-31T04:39:54.625Z,1.63
2023-03-31T04:43:01.090Z,1.73
2023-03-31T04:46:04.010Z,1.70
2023-03-31T04:49:13.006Z,1.50
2023-03-31T04:52:17.477Z,1.67
2023-03-31T04:55:29.831Z,1.17
2023-03-31T04:58:57.826Z,1.33
2023-03-31T05:02:00.592Z,1.10
2023-03-31T05:05:03.797Z,1.57
2023-03-31T05:08:08.010Z,1.60
2023-03-31T05:11:10.972Z,1.67
2023-03-31T05:14:13.573Z,1.90
2023-03-31T05:17:17.985Z,1.30
2023-03-31T05:20:21.512Z,1.43
2023-03-31T05:23:25.661Z,1.40
2023-03-31T05:26:28.279Z,1.23
2023-03-31T05:29:31.256Z,1.60
2023-03-31T05:32:34.085Z,1.40
2023-03-31T05:35:36.921Z,1.50
2023-03-31T05:38:41.566Z,1.80
2023-03-31T05:41:44.240Z,1.33
2023-03-31T05:44:47.114Z,1.60
2023-03-31T05:47:51.976Z,1.33
2023-03-31T05:51:04.723Z,1.50
2023-03-31T05:54:09.030Z,1.77
2023-03-31T05:57:12.145Z,1.97
2023-03-31T06:00:17.792Z,2.20
2023-03-31T06:06:40.247Z,1.90
2023-03-31T06:09:44.379Z,1.80
2023-03-31T06:12:49.440Z,2.67
2023-03-31T06:15:56.316Z,2.13
2023-03-31T06:19:01.322Z,2.57
2023-03-31T06:22:04.113Z,2.00
2023-03-31T06:25:09.266Z,2.27
2023-03-31T06:28:11.943Z,2.40
2023-03-31T06:31:16.830Z,2.57
2023-03-31T06:34:22.540Z,2.57
2023-03-31T06:37:28.018Z,2.73
2023-03-31T06:40:32.076Z,2.30
2023-03-31T06:43:34.875Z,2.00
2023-03-31T06:46:40.464Z,2.20
2023-03-31T06:49:43.172Z,2.60
2023-03-31T06:52:52.730Z,2.37
2023-03-31T06:56:04.727Z,2.40
2023-03-31T06:59:26.478Z,2.50
2023-03-31T07:02:29.295Z,2.60
2023-03-31T07:05:32.679Z,2.43
2023-03-31T07:08:36.201Z,2.53
2023-03-31T07:11:46.280Z,2.20
2023-03-31T07:14:56.781Z,2.60
2023-03-31T07:18:02.293Z,2.37
2023-03-31T07:21:09.625Z,2.80
2023-03-31T07:24:12.761Z,3.10
2023-03-31T07:27:18.726Z,2.67
2023-03-31T07:30:26.788Z,3.00
2023-03-31T07:33:31.808Z,2.93
2023-03-31T07:36:42.974Z,2.70
2023-03-31T07:39:47.290Z,2.70
2023-03-31T07:42:52.514Z,2.53
2023-03-31T07:45:55.254Z,2.80
2023-03-31T07:48:58.599Z,2.67
2023-03-31T07:52:04.158Z,2.80
2023-03-31T07:55:20.823Z,3.20
2023-03-31T07:58:27.631Z,2.67
2023-03-31T08:01:30.346Z,2.77
2023-03-31T08:04:33.392Z,2.77
2023-03-31T08:07:41.642Z,2.80
2023-03-31T08:10:46.270Z,2.37
2023-03-31T08:13:55.955Z,2.63
2023-03-31T08:17:00.166Z,2.60
2023-03-31T08:20:07.991Z,2.87
2023-03-31T08:23:15.735Z,2.80
2023-03-31T08:26:24.196Z,2.80
2023-03-31T08:29:28.184Z,2.50
2023-03-31T08:32:47.718Z,2.27
2023-03-31T08:36:16.298Z,2.53
2023-03-31T08:39:21.620Z,2.50
2023-03-31T08:42:48.286Z,3.00
2023-03-31T08:48:58.134Z,2.87
2023-03-31T08:52:04.897Z,1.90
2023-03-31T08:55:20.489Z,2.47
2023-03-31T08:58:37.137Z,2.13
2023-03-31T09:01:57.776Z,2.10
2023-03-31T09:05:46.007Z,4.33
2023-03-31T09:12:45.478Z,2.07
2023-03-31T09:15:54.515Z,1.73
2023-03-31T09:19:01.615Z,2.10
2023-03-31T09:22:07.556Z,1.60
2023-03-31T09:25:15.041Z,1.90
2023-03-31T09:28:22.555Z,1.47
2023-03-31T09:31:29.188Z,1.73
2023-03-31T09:34:36.218Z,1.40
2023-03-31T09:37:49.074Z,1.50
2023-03-31T09:40:51.868Z,1.40
2023-03-31T09:43:54.627Z,1.33
2023-03-31T09:46:59.142Z,1.80
2023-03-31T09:50:09.432Z,1.47
2023-03-31T09:53:24.073Z,1.70
2023-03-31T09:56:48.814Z,1.27
2023-03-31T09:59:52.417Z,1.30
2023-03-31T10:02:56.510Z,1.20
2023-03-31T10:06:00.552Z,1.20
2023-03-31T10:09:12.430Z,0.83
2023-03-31T10:12:20.225Z,0.97
2023-03-31T10:15:27.064Z,0.70
2023-03-31T10:18:35.179Z,0.77
2023-03-31T10:21:47.505Z,0.67
2023-03-31T10:24:52.069Z,0.50
2023-03-31T10:27:57.415Z,0.90
2023-03-31T10:31:03.435Z,0.67
2023-03-31T10:34:09.512Z,0.53
2023-03-31T10:37:19.444Z,0.90
2023-03-31T10:40:25.697Z,0.60
2023-03-31T10:43:39.674Z,0.70
2023-03-31T10:46:47.671Z,0.77
2023-03-31T10:50:01.343Z,1.10
2023-03-31T10:53:07.824Z,1.00
2023-03-31T10:56:22.290Z,1.07
2023-03-31T10:59:45.727Z,1.17
2023-03-31T11:03:26.002Z,1.00
2023-03-31T11:06:41.416Z,3.43
2023-03-31T11:10:03.410Z,3.50
2023-03-31T11:13:11.258Z,2.83
2023-03-31T11:16:22.094Z,1.03
2023-03-31T11:19:39.940Z,1.00
2023-03-31T11:22:48.649Z,0.97
2023-03-31T11:25:59.721Z,1.30
2023-03-31T11:29:16.431Z,3.60
2023-03-31T11:32:56.860Z,2.73
2023-03-31T11:36:13.643Z,8.27
2023-03-31T11:39:29.855Z,6.90
2023-03-31T11:42:43.271Z,1.13
2023-03-31T11:45:53.576Z,1.20
2023-03-31T11:49:03.720Z,1.10
2023-03-31T11:52:10.893Z,1.00
2023-03-31T11:55:17.981Z,1.23
2023-03-31T11:58:28.435Z,0.80
2023-03-31T12:01:38.904Z,0.83
2023-03-31T12:04:44.985Z,0.90
2023-03-31T12:07:53.332Z,0.70
2023-03-31T12:11:02.196Z,2.23
2023-03-31T12:14:17.286Z,0.80
2023-03-31T12:17:24.025Z,0.80
2023-03-31T12:20:32.239Z,0.70
2023-03-31T12:23:40.400Z,0.67
2023-03-31T12:26:53.371Z,0.70
2023-03-31T12:30:03.579Z,0.80
2023-03-31T12:33:13.386Z,3.10
2023-03-31T12:36:33.671Z,1.10
2023-03-31T12:39:46.570Z,0.77
2023-03-31T12:43:10.256Z,0.80
2023-03-31T12:46:29.478Z,0.80
2023-03-31T12:49:50.250Z,1.60
2023-03-31T12:53:02.086Z,1.10
2023-03-31T12:56:06.240Z,1.10
2023-03-31T12:59:33.131Z,1.80
2023-03-31T13:02:37.458Z,1.30
2023-03-31T13:05:48.520Z,0.80
2023-03-31T13:08:57.073Z,0.80
2023-03-31T13:12:31.728Z,0.87
2023-03-31T13:15:34.661Z,1.50
2023-03-31T13:18:43.539Z,1.90
2023-03-31T13:22:00.093Z,1.70
2023-03-31T13:25:44.219Z,1.17
2023-03-31T13:28:46.817Z,1.20
2023-03-31T13:32:29.026Z,1.10
2023-03-31T13:35:37.889Z,1.10
2023-03-31T13:38:54.120Z,0.80
2023-03-31T13:42:19.710Z,0.73
2023-03-31T13:45:45.461Z,1.03
2023-03-31T13:49:06.130Z,0.70
2023-03-31T13:52:12.938Z,0.83
2023-03-31T13:55:52.012Z,1.10
2023-03-31T13:59:13.444Z,0.90
2023-03-31T14:02:48.614Z,0.70
2023-03-31T14:05:57.112Z,1.50
2023-03-31T14:09:05.873Z,0.83
2023-03-31T14:12:22.209Z,0.83
2023-03-31T14:15:27.897Z,0.80
2023-03-31T14:18:35.256Z,1.10
2023-03-31T14:21:44.158Z,0.77
2023-03-31T14:24:54.101Z,0.97
2023-03-31T14:28:13.762Z,1.50
2023-03-31T14:31:23.375Z,1.07
2023-03-31T14:34:47.688Z,1.03
2023-03-31T14:37:51.087Z,0.80
2023-03-31T14:40:57.504Z,0.90
2023-03-31T14:44:04.067Z,0.93
2023-03-31T14:47:16.247Z,1.00
2023-03-31T14:50:20.019Z,0.90
2023-03-31T14:53:25.853Z,1.10
2023-03-31T14:56:37.400Z,0.90
2023-03-31T14:59:40.848Z,0.90
2023-03-31T15:02:45.903Z,0.90
2023-03-31T15:05:49.827Z,1.00
2023-03-31T15:08:59.754Z,1.00
2023-03-31T15:12:06.018Z,1.00
2023-03-31T15:15:12.912Z,0.90
2023-03-31T15:18:21.711Z,0.77
2023-03-31T15:21:26.541Z,0.73
2023-03-31T15:24:31.887Z,0.90
2023-03-31T15:27:39.868Z,0.70
2023-03-31T15:30:43.457Z,0.60
2023-03-31T15:33:48.232Z,0.60
2023-03-31T15:36:51.966Z,0.60
2023-03-31T15:39:57.643Z,0.50
2023-03-31T15:46:27.210Z,0.57
2023-03-31T15:49:30.913Z,0.87
2023-03-31T15:52:36.681Z,0.90
2023-03-31T15:59:05.810Z,0.80
2023-03-31T16:02:14.619Z,0.77
2023-03-31T16:05:37.181Z,0.60
2023-03-31T16:08:44.833Z,0.60
2023-03-31T16:11:52.123Z,0.73
2023-03-31T16:15:06.065Z,0.90
2023-03-31T16:18:12.116Z,0.80
2023-03-31T16:21:31.285Z,0.63
2023-03-31T16:24:36.644Z,0.97
2023-03-31T16:27:43.238Z,0.90
2023-03-31T16:30:55.909Z,1.10
2023-03-31T16:34:09.643Z,0.90
2023-03-31T16:37:13.690Z,1.10
2023-03-31T16:40:21.799Z,0.80
2023-03-31T16:43:26.434Z,0.90
2023-03-31T16:46:36.953Z,0.80
2023-03-31T16:49:39.774Z,1.17
2023-03-31T16:52:45.392Z,0.93
2023-03-31T16:55:48.505Z,0.90
2023-03-31T16:58:53.732Z,1.13
2023-03-31T17:01:58.276Z,0.80
2023-03-31T17:05:12.681Z,1.03
2023-03-31T17:08:16.890Z,1.10
2023-03-31T17:11:19.574Z,0.80
2023-03-31T17:14:22.189Z,0.90
2023-03-31T17:17:30.294Z,1.10
2023-03-31T17:20:34.133Z,1.10
2023-03-31T17:23:38.116Z,1.10
2023-03-31T17:26:48.339Z,0.90
2023-03-31T17:29:53.278Z,1.07
2023-03-31T17:32:58.335Z,0.90
2023-03-31T17:36:01.143Z,1.40
2023-03-31T17:39:05.010Z,1.00
2023-03-31T17:42:10.320Z,1.13
2023-03-31T17:45:13.120Z,0.87
2023-03-31T17:48:17.465Z,1.10
2023-03-31T17:51:22.192Z,1.00
2023-03-31T17:54:25.039Z,0.90
2023-03-31T17:57:27.863Z,1.80
2023-03-31T18:00:30.611Z,0.77
2023-03-31T18:03:35.365Z,0.97
2023-03-31T18:06:38.739Z,0.90
2023-03-31T18:09:44.493Z,0.80
2023-03-31T18:12:50.773Z,1.00
2023-03-31T18:15:59.740Z,1.37
2023-03-31T18:19:04.071Z,1.10
2023-03-31T18:22:06.819Z,0.83
2023-03-31T18:25:11.191Z,1.00
2023-03-31T18:28:14.784Z,1.37
2023-03-31T18:31:17.564Z,0.90
2023-03-31T18:34:22.069Z,1.10
2023-03-31T18:37:24.842Z,0.90
2023-03-31T18:40:27.834Z,1.07
2023-03-31T18:43:32.095Z,0.70
2023-03-31T18:46:35.997Z,0.80
2023-03-31T18:49:40.033Z,0.77
2023-03-31T18:52:42.678Z,0.70
2023-03-31T18:55:45.721Z,0.67
2023-03-31T18:58:48.407Z,0.80
2023-03-31T19:01:52.355Z,1.10
2023-03-31T19:04:59.249Z,0.60
2023-03-31T19:08:02.167Z,0.90
2023-03-31T19:11:10.186Z,1.10
2023-03-31T19:14:13.676Z,1.00
2023-03-31T19:17:17.705Z,1.03
2023-03-31T19:20:22.172Z,0.70
2023-03-31T19:23:27.010Z,0.87
2023-03-31T19:26:29.963Z,1.30
2023-03-31T19:29:33.980Z,0.77
2023-03-31T19:32:36.719Z,0.90
2023-03-31T19:35:44.643Z,1.03
2023-03-31T19:38:47.363Z,1.20
2023-03-31T19:41:50.044Z,0.73
2023-03-31T19:44:52.832Z,0.77
2023-03-31T19:47:56.391Z,1.00
2023-03-31T19:51:05.747Z,0.67
2023-03-31T19:54:10.746Z,0.87
2023-03-31T19:57:16.086Z,1.20
2023-03-31T20:00:19.928Z,0.87
2023-03-31T20:03:24.875Z,0.93
2023-03-31T20:06:32.031Z,0.70
2023-03-31T20:09:35.209Z,1.20
2023-03-31T20:12:38.058Z,1.13
2023-03-31T20:15:41.187Z,2.10
2023-03-31T20:18:50.503Z,2.40
2023-03-31T20:21:56.055Z,0.70
2023-03-31T20:24:59.883Z,1.00
2023-03-31T20:28:03.020Z,0.80
2023-03-31T20:31:09.016Z,0.73
2023-03-31T20:34:14.985Z,0.73
2023-03-31T20:37:19.200Z,0.80
2023-03-31T20:40:22.622Z,0.80
2023-03-31T20:43:26.670Z,0.70
2023-03-31T20:46:29.485Z,0.80
2023-03-31T20:49:32.413Z,0.73
2023-03-31T20:52:36.725Z,0.80
2023-03-31T20:55:40.226Z,1.10
2023-03-31T20:58:44.381Z,0.60
2023-03-31T21:01:49.551Z,0.60
2023-03-31T21:04:53.148Z,0.77
2023-03-31T21:07:57.742Z,0.63
2023-03-31T21:11:01.646Z,1.00
2023-03-31T21:14:05.807Z,0.90
2023-03-31T21:17:08.568Z,0.80
2023-03-31T21:20:11.971Z,0.63
2023-03-31T21:23:16.071Z,0.90
2023-03-31T21:26:18.998Z,1.10
2023-03-31T21:29:21.726Z,0.90
2023-03-31T21:32:27.469Z,0.90
2023-03-31T21:35:31.635Z,0.70
2023-03-31T21:38:39.390Z,0.70
2023-03-31T21:41:42.261Z,0.70
2023-03-31T21:44:48.070Z,0.87
2023-03-31T21:47:50.893Z,0.90
2023-03-31T21:51:02.118Z,0.90
2023-03-31T21:54:06.787Z,1.17
2023-03-31T21:57:09.605Z,0.90
2023-03-31T22:00:16.520Z,1.00
2023-03-31T22:03:32.014Z,0.90
2023-03-31T22:06:36.141Z,0.70
2023-03-31T22:09:40.297Z,0.77
2023-03-31T22:12:44.950Z,0.87
2023-03-31T22:15:48.192Z,0.80
2023-03-31T22:18:52.913Z,0.80
2023-03-31T22:21:59.367Z,1.00
2023-03-31T22:25:03.430Z,0.97
2023-03-31T22:28:07.345Z,0.67
2023-03-31T22:31:10.373Z,0.83
2023-03-31T22:34:13.278Z,0.87
2023-03-31T22:37:16.191Z,1.00
2023-03-31T22:40:20.564Z,0.90
2023-03-31T22:43:24.182Z,0.90
2023-03-31T22:46:33.522Z,0.63
2023-03-31T22:49:43.842Z,0.97
2023-03-31T22:52:49.602Z,0.90
2023-03-31T22:55:54.846Z,1.10
2023-03-31T22:58:58.558Z,0.90
2023-03-31T23:02:01.299Z,0.80
2023-03-31T23:05:08.522Z,1.10
2023-03-31T23:08:12.018Z,0.90
2023-03-31T23:11:17.513Z,1.00
2023-03-31T23:14:20.581Z,0.80
2023-03-31T23:17:26.543Z,0.77
2023-03-31T23:20:36.869Z,0.70
2023-03-31T23:23:39.892Z,0.90
2023-03-31T23:26:47.618Z,0.63
2023-03-31T23:29:53.455Z,0.80
2023-03-31T23:32:56.297Z,0.67
2023-03-31T23:36:03.836Z,0.80
2023-03-31T23:39:07.544Z,0.60
2023-03-31T23:42:20.502Z,0.50
2023-03-31T23:45:24.131Z,0.80
2023-03-31T23:48:26.972Z,1.10
2023-03-31T23:51:30.042Z,0.80
2023-03-31T23:54:46.728Z,0.60
2023-03-31T23:58:00.234Z,0.70
